createdAt,value
2022-08-08T00:00:53.802Z,96248.53
2022-08-08T00:03:15.285Z,96255.34
2022-08-08T00:06:04.007Z,96258.34
2022-08-08T00:08:41.036Z,96249.66
2022-08-08T00:11:23.710Z,96251.06
2022-08-08T00:14:16.828Z,96244.81
2022-08-08T00:17:04.234Z,96246.78
2022-08-08T00:19:43.237Z,96245.19
2022-08-08T00:22:24.177Z,96248.47
2022-08-08T00:25:02.144Z,96200.97
2022-08-08T00:27:34.715Z,96243.34
2022-08-08T00:30:11.377Z,96240.41
2022-08-08T00:32:48.321Z,96248.84
2022-08-08T00:35:43.144Z,96242.59
2022-08-08T00:38:51.389Z,96238.56
2022-08-08T00:42:09.008Z,96244.81
2022-08-08T00:45:29.534Z,96239.41
2022-08-08T00:48:33.903Z,96239.44
2022-08-08T00:51:51.702Z,96244.63
2022-08-08T00:54:45.853Z,96236.50
2022-08-08T00:57:41.291Z,96175.00
2022-08-08T01:00:16.151Z,96236.81
2022-08-08T01:04:01.252Z,96231.69
2022-08-08T01:07:01.371Z,96240.66
2022-08-08T01:10:14.783Z,96236.63
2022-08-08T01:13:38.090Z,96230.97
2022-08-08T01:16:38.759Z,96239.13
2022-08-08T01:19:51.919Z,96222.91
2022-08-08T01:23:05.200Z,96241.31
2022-08-08T01:26:17.025Z,96233.25
2022-08-08T01:29:28.002Z,96234.63
2022-08-08T01:32:43.437Z,96245.22
2022-08-08T01:35:40.551Z,96238.69
2022-08-08T01:38:42.310Z,96235.47
2022-08-08T01:41:23.138Z,96243.03
2022-08-08T01:44:00.193Z,96238.22
2022-08-08T01:46:47.305Z,96234.97
2022-08-08T01:49:38.449Z,96236.06
2022-08-08T01:53:35.319Z,96220.69
2022-08-08T01:56:27.795Z,96235.53
2022-08-08T01:58:38.701Z,96238.22
2022-08-08T02:01:19.210Z,96239.59
2022-08-08T02:04:04.504Z,96236.09
2022-08-08T02:06:56.605Z,96234.22
2022-08-08T02:10:02.773Z,96233.97
2022-08-08T02:12:32.339Z,96232.13
2022-08-08T02:15:05.525Z,96245.13
2022-08-08T02:17:47.997Z,96243.53
2022-08-08T02:21:01.781Z,96245.13
2022-08-08T02:23:31.849Z,96245.41
2022-08-08T02:26:11.906Z,96228.16
2022-08-08T02:28:55.544Z,96244.91
2022-08-08T02:31:58.280Z,96243.81
2022-08-08T02:35:07.861Z,96247.09
2022-08-08T02:37:52.411Z,96242.19
2022-08-08T02:40:38.768Z,96238.41
2022-08-08T02:44:38.507Z,96240.28
2022-08-08T02:46:50.494Z,96235.97
2022-08-08T02:49:51.526Z,96229.78
2022-08-08T02:52:45.987Z,96238.19
2022-08-08T02:56:08.556Z,96232.78
2022-08-08T02:59:58.190Z,96240.13
2022-08-08T03:03:01.537Z,96244.47
2022-08-08T03:06:07.253Z,96246.13
2022-08-08T03:09:21.682Z,96231.56
2022-08-08T03:12:36.441Z,96245.63
2022-08-08T03:16:05.239Z,96242.94
2022-08-08T03:18:39.937Z,96248.91
2022-08-08T03:21:10.180Z,96238.91
2022-08-08T03:23:59.151Z,96235.94
2022-08-08T03:26:41.889Z,96234.59
2022-08-08T03:29:20.499Z,96235.41
2022-08-08T03:32:12.753Z,96244.34
2022-08-08T03:34:44.926Z,96242.41
2022-08-08T03:37:58.906Z,96225.09
2022-08-08T03:40:10.807Z,96241.06
2022-08-08T03:43:15.578Z,96250.56
2022-08-08T03:46:05.358Z,96241.09
2022-08-08T03:49:09.659Z,96251.13
2022-08-08T03:51:39.995Z,96246.75
2022-08-08T03:54:15.568Z,96247.84
2022-08-08T03:58:09.644Z,96231.94
2022-08-08T04:00:02.704Z,96249.22
2022-08-08T04:02:47.838Z,96250.00
2022-08-08T04:05:28.200Z,96226.28
2022-08-08T04:07:57.875Z,96253.00
2022-08-08T04:10:31.685Z,96253.00
2022-08-08T04:13:08.206Z,96264.13
2022-08-08T04:15:54.580Z,96268.44
2022-08-08T04:18:32.313Z,96271.41
2022-08-08T04:21:01.049Z,96272.78
2022-08-08T04:24:12.095Z,96278.19
2022-08-08T04:26:22.004Z,96205.78
2022-08-08T04:28:55.914Z,96277.94
2022-08-08T04:31:57.392Z,96276.56
2022-08-08T04:34:15.594Z,96278.44
2022-08-08T04:36:47.073Z,96278.69
2022-08-08T04:39:47.868Z,96274.63
2022-08-08T04:42:04.430Z,96277.66
2022-08-08T04:44:35.504Z,96183.59
2022-08-08T04:47:04.107Z,96291.47
2022-08-08T04:50:00.768Z,96296.59
2022-08-08T04:52:25.298Z,96294.16
2022-08-08T04:55:02.145Z,96302.78
2022-08-08T04:57:30.901Z,96297.63
2022-08-08T05:00:02.177Z,96300.06
2022-08-08T05:02:31.730Z,96297.91
2022-08-08T05:05:00.758Z,96300.06
2022-08-08T05:07:37.951Z,96297.63
2022-08-08T05:10:12.663Z,96313.31
2022-08-08T05:12:42.993Z,96308.94
2022-08-08T05:16:52.128Z,96307.31
2022-08-08T05:18:20.102Z,96313.28
2022-08-08T05:20:52.196Z,96312.16
2022-08-08T05:23:22.219Z,96317.03
2022-08-08T05:25:51.717Z,96321.88
2022-08-08T05:28:52.410Z,96320.81
2022-08-08T05:32:02.565Z,96322.97
2022-08-08T05:34:00.409Z,96319.16
2022-08-08T05:36:34.438Z,96320.72
2022-08-08T05:39:06.569Z,96323.44
2022-08-08T05:41:54.828Z,96323.69
2022-08-08T05:44:31.109Z,96309.88
2022-08-08T05:47:04.956Z,96280.66
2022-08-08T05:49:34.370Z,96286.06
2022-08-08T05:52:07.505Z,96319.53
2022-08-08T05:54:50.479Z,96320.84
2022-08-08T05:58:05.256Z,96320.25
2022-08-08T06:00:23.408Z,96329.44
2022-08-08T06:03:17.430Z,96319.91
2022-08-08T06:05:59.167Z,96325.00
2022-08-08T06:08:34.916Z,96323.88
2022-08-08T06:11:05.598Z,96323.56
2022-08-08T06:13:36.126Z,96328.38
2022-08-08T06:16:19.077Z,96333.78
2022-08-08T06:18:55.568Z,96331.78
2022-08-08T06:21:32.520Z,96337.66
2022-08-08T06:24:30.550Z,96340.31
2022-08-08T06:27:09.190Z,96342.69
2022-08-08T06:30:00.263Z,96338.88
2022-08-08T06:32:31.644Z,96331.25
2022-08-08T06:35:30.760Z,96339.88
2022-08-08T06:37:55.775Z,96346.88
2022-08-08T06:40:27.265Z,96341.38
2022-08-08T06:42:59.230Z,96350.28
2022-08-08T06:45:29.869Z,96338.66
2022-08-08T06:48:01.774Z,96349.63
2022-08-08T06:50:38.442Z,96353.59
2022-08-08T06:53:13.760Z,96353.53
2022-08-08T06:55:47.152Z,96347.53
2022-08-08T06:58:30.524Z,96351.22
2022-08-08T07:01:11.767Z,96356.00
2022-08-08T07:04:36.857Z,96353.75
2022-08-08T07:06:52.293Z,96357.47
2022-08-08T07:09:27.032Z,96314.47
2022-08-08T07:12:10.788Z,96337.34
2022-08-08T07:14:54.914Z,96355.00
2022-08-08T07:17:31.616Z,96353.84
2022-08-08T07:20:11.321Z,96361.34
2022-08-08T07:22:50.939Z,96356.34
2022-08-08T07:25:22.373Z,96363.94
2022-08-08T07:28:19.519Z,96364.88
2022-08-08T07:30:48.493Z,96366.44
2022-08-08T07:33:18.829Z,96361.50
2022-08-08T07:35:48.710Z,96374.28
2022-08-08T07:38:25.781Z,96371.13
2022-08-08T07:41:04.485Z,96371.00
2022-08-08T07:43:37.787Z,96378.25
2022-08-08T07:46:23.423Z,96380.22
2022-08-08T07:48:53.408Z,96371.34
2022-08-08T07:51:23.785Z,96377.53
2022-08-08T07:54:26.750Z,96373.28
2022-08-08T07:57:04.252Z,96368.88
2022-08-08T07:59:48.516Z,96371.22
2022-08-08T08:02:34.911Z,96361.50
2022-08-08T08:05:15.307Z,96378.03
2022-08-08T08:07:46.202Z,96388.13
2022-08-08T08:10:30.304Z,96381.47
2022-08-08T08:13:25.889Z,96381.25
2022-08-08T08:16:12.958Z,96385.31
2022-08-08T08:18:51.771Z,96382.56
2022-08-08T08:21:44.140Z,96384.06
2022-08-08T08:24:15.800Z,96352.25
2022-08-08T08:26:52.790Z,96380.81
2022-08-08T08:29:24.356Z,96386.16
2022-08-08T08:32:03.316Z,96390.94
2022-08-08T08:34:34.390Z,96382.13
2022-08-08T08:37:07.765Z,96393.22
2022-08-08T08:39:59.933Z,96393.81
2022-08-08T08:42:29.146Z,96362.69
2022-08-08T08:45:01.887Z,96388.63
2022-08-08T08:47:46.341Z,96373.13
2022-08-08T08:50:27.873Z,96383.50
2022-08-08T08:53:54.264Z,96381.59
2022-08-08T08:55:55.665Z,96384.59
2022-08-08T08:58:34.045Z,96387.09
2022-08-08T09:01:08.880Z,96386.72
2022-08-08T09:03:47.561Z,96392.75
2022-08-08T09:06:28.853Z,96402.25
2022-08-08T09:09:07.496Z,96395.81
2022-08-08T09:12:06.015Z,96388.63
2022-08-08T09:14:42.994Z,96395.38
2022-08-08T09:17:18.815Z,96369.56
2022-08-08T09:21:59.388Z,96395.94
2022-08-08T09:22:39.256Z,96395.47
2022-08-08T09:25:10.335Z,96392.00
2022-08-08T09:27:50.833Z,96392.97
2022-08-08T09:30:30.233Z,96381.88
2022-08-08T09:33:20.785Z,96313.19
2022-08-08T09:35:51.280Z,96374.72
2022-08-08T09:38:36.080Z,96352.75
2022-08-08T09:41:54.920Z,96381.84
2022-08-08T09:44:47.204Z,96369.63
2022-08-08T09:47:26.589Z,96375.47
2022-08-08T09:50:13.681Z,96381.59
2022-08-08T09:52:54.168Z,96384.00
2022-08-08T09:55:51.528Z,96344.19
2022-08-08T09:58:25.926Z,96374.53
2022-08-08T10:01:01.363Z,96371.97
2022-08-08T10:03:40.046Z,96365.22
2022-08-08T10:06:16.696Z,96362.16
2022-08-08T10:08:47.294Z,96376.00
2022-08-08T10:12:27.984Z,96352.00
2022-08-08T10:14:27.511Z,96367.94
2022-08-08T10:16:58.492Z,96370.00
2022-08-08T10:19:57.240Z,96367.41
2022-08-08T10:22:27.590Z,96357.72
2022-08-08T10:25:03.453Z,96351.59
2022-08-08T10:27:42.632Z,96350.28
2022-08-08T10:30:16.749Z,96352.53
2022-08-08T10:33:02.334Z,96344.91
2022-08-08T10:36:07.056Z,96329.91
2022-08-08T10:38:23.013Z,96360.53
2022-08-08T10:40:53.869Z,96348.56
2022-08-08T10:43:23.319Z,96356.59
2022-08-08T10:45:55.685Z,96346.38
2022-08-08T10:48:37.256Z,96342.34
2022-08-08T10:51:15.242Z,96343.75
2022-08-08T10:53:56.753Z,96355.22
2022-08-08T10:56:27.699Z,96316.69
2022-08-08T10:59:01.447Z,96357.13
2022-08-08T11:01:33.551Z,96344.16
2022-08-08T11:04:04.448Z,96334.75
2022-08-08T11:06:36.629Z,96336.63
2022-08-08T11:09:19.471Z,96337.56
2022-08-08T11:12:05.607Z,96341.00
2022-08-08T11:14:50.711Z,96343.53
2022-08-08T11:18:00.298Z,96347.91
2022-08-08T11:20:14.469Z,96342.03
2022-08-08T11:22:52.502Z,96338.13
2022-08-08T11:25:52.053Z,96338.13
2022-08-08T11:28:18.607Z,96335.72
2022-08-08T11:30:50.237Z,96330.28
2022-08-08T11:33:22.193Z,96335.84
2022-08-08T11:36:13.395Z,96338.28
2022-08-08T11:38:54.898Z,96338.16
2022-08-08T11:41:27.994Z,96326.34
2022-08-08T11:44:02.242Z,96326.47
2022-08-08T11:46:34.556Z,96330.31
2022-08-08T11:49:05.539Z,96329.56
2022-08-08T11:51:39.606Z,96338.41
2022-08-08T11:54:31.807Z,96330.69
2022-08-08T11:57:16.915Z,96335.28
2022-08-08T12:00:01.328Z,96337.03
2022-08-08T12:02:34.180Z,96334.34
2022-08-08T12:05:06.781Z,96333.91
2022-08-08T12:07:50.945Z,96240.34
2022-08-08T12:10:23.310Z,96332.84
2022-08-08T12:13:01.732Z,96327.09
2022-08-08T12:15:42.030Z,96296.13
2022-08-08T12:18:20.807Z,96315.31
2022-08-08T12:20:53.283Z,96317.50
2022-08-08T12:23:43.544Z,96317.16
2022-08-08T12:26:27.492Z,96321.19
2022-08-08T12:29:19.824Z,96327.13
2022-08-08T12:32:02.643Z,96326.94
2022-08-08T12:34:39.592Z,96321.88
2022-08-08T12:37:11.329Z,96325.88
2022-08-08T12:40:01.003Z,96327.53
2022-08-08T12:42:33.846Z,96324.53
2022-08-08T12:45:54.220Z,96313.94
2022-08-08T12:48:10.083Z,96312.41
2022-08-08T12:50:49.519Z,96310.38
2022-08-08T12:53:30.020Z,96282.97
2022-08-08T12:56:18.771Z,96311.97
2022-08-08T12:58:54.155Z,96310.88
2022-08-08T13:01:36.742Z,96307.88
2022-08-08T13:04:25.303Z,96304.84
2022-08-08T13:07:00.803Z,96283.47
2022-08-08T13:09:57.645Z,96298.44
2022-08-08T13:12:30.277Z,96296.31
2022-08-08T13:15:03.815Z,96267.03
2022-08-08T13:18:09.441Z,96265.06
2022-08-08T13:20:27.467Z,96299.94
2022-08-08T13:25:50.372Z,96287.38
2022-08-08T13:28:32.199Z,96300.50
2022-08-08T13:31:04.176Z,96288.31
2022-08-08T13:33:42.092Z,96283.50
2022-08-08T13:36:13.673Z,96285.63
2022-08-08T13:38:42.716Z,96293.47
2022-08-08T13:41:16.732Z,96292.00
2022-08-08T13:43:50.804Z,96250.88
2022-08-08T13:46:26.710Z,96284.66
2022-08-08T13:49:12.040Z,96293.91
2022-08-08T13:52:02.108Z,96295.84
2022-08-08T13:54:33.666Z,96276.78
2022-08-08T13:57:12.625Z,96289.19
2022-08-08T13:59:48.160Z,96292.38
2022-08-08T14:02:31.239Z,96285.56
2022-08-08T14:05:09.238Z,96282.94
2022-08-08T14:07:52.224Z,96282.00
2022-08-08T14:10:33.412Z,96289.72
2022-08-08T14:13:30.672Z,96254.13
2022-08-08T14:16:04.642Z,96287.41
2022-08-08T14:18:51.983Z,96286.81
2022-08-08T14:21:23.134Z,96284.25
2022-08-08T14:24:07.652Z,96281.06
2022-08-08T14:26:42.478Z,96270.31
2022-08-08T14:29:27.997Z,96280.34
2022-08-08T14:32:09.444Z,96277.56
2022-08-08T14:34:43.631Z,96265.66
2022-08-08T14:37:18.316Z,96272.94
2022-08-08T14:39:53.704Z,96272.81
2022-08-08T14:42:54.934Z,96271.41
2022-08-08T14:45:33.208Z,96277.72
2022-08-08T14:48:16.271Z,96280.81
2022-08-08T14:50:47.228Z,96273.94
2022-08-08T14:53:16.469Z,96276.50
2022-08-08T14:55:45.886Z,96281.94
2022-08-08T14:58:16.853Z,96272.00
2022-08-08T15:00:50.138Z,96275.22
2022-08-08T15:03:19.037Z,96259.03
2022-08-08T15:05:53.906Z,96273.44
2022-08-08T15:08:34.495Z,96274.13
2022-08-08T15:11:10.479Z,96282.47
2022-08-08T15:14:02.829Z,96276.16
2022-08-08T15:16:34.302Z,96276.22
2022-08-08T15:19:05.133Z,96276.53
2022-08-08T15:21:37.765Z,96278.75
2022-08-08T15:24:13.591Z,96285.47
2022-08-08T15:26:44.320Z,96286.34
2022-08-08T15:29:22.258Z,96277.00
2022-08-08T15:32:19.512Z,96277.47
2022-08-08T15:34:43.787Z,96282.78
2022-08-08T15:37:15.647Z,96276.84
2022-08-08T15:39:47.977Z,96274.72
2022-08-08T15:42:31.627Z,96256.22
2022-08-08T15:45:01.665Z,96270.16
2022-08-08T15:47:32.191Z,96271.88
2022-08-08T15:50:01.633Z,96277.00
2022-08-08T15:52:33.153Z,96275.47
2022-08-08T15:55:03.210Z,96273.19
2022-08-08T15:57:35.265Z,96268.72
2022-08-08T16:00:25.919Z,96272.53
2022-08-08T16:02:57.830Z,96276.63
2022-08-08T16:05:35.445Z,96268.97
2022-08-08T16:08:20.196Z,96268.44
2022-08-08T16:13:03.529Z,96265.03
2022-08-08T16:13:43.861Z,96266.53
2022-08-08T16:16:18.509Z,96274.63
2022-08-08T16:18:53.122Z,96255.16
2022-08-08T16:21:29.177Z,96234.53
2022-08-08T16:24:00.795Z,96189.50
2022-08-08T16:26:34.764Z,96266.69
2022-08-08T16:29:09.181Z,96268.50
2022-08-08T16:31:44.702Z,96273.03
2022-08-08T16:34:19.847Z,96272.69
2022-08-08T16:36:50.247Z,96197.72
2022-08-08T16:39:49.026Z,96235.91
2022-08-08T16:42:17.615Z,96268.59
2022-08-08T16:44:47.492Z,96277.34
2022-08-08T16:47:41.491Z,96281.03
2022-08-08T16:50:14.647Z,96246.59
2022-08-08T16:55:06.673Z,96262.88
2022-08-08T16:55:55.693Z,96287.66
2022-08-08T16:58:26.872Z,96279.97
2022-08-08T17:00:59.267Z,96276.31
2022-08-08T17:03:58.567Z,96283.28
2022-08-08T17:06:36.464Z,96281.69
2022-08-08T17:09:06.484Z,96280.06
2022-08-08T17:11:39.282Z,96271.59
2022-08-08T17:14:18.799Z,96288.81
2022-08-08T17:16:57.175Z,96288.56
2022-08-08T17:19:29.118Z,96275.19
2022-08-08T17:22:01.030Z,96292.41
2022-08-08T17:24:31.252Z,96293.91
2022-08-08T17:27:03.597Z,96297.81
2022-08-08T17:29:36.414Z,96300.63
2022-08-08T17:32:12.040Z,96290.31
2022-08-08T17:35:04.339Z,96293.94
2022-08-08T17:37:32.809Z,96293.84
2022-08-08T17:40:13.190Z,96301.59
2022-08-08T17:42:47.095Z,96303.09
2022-08-08T17:45:22.545Z,96311.69
2022-08-08T17:47:53.908Z,96302.16
2022-08-08T17:50:23.836Z,96311.66
2022-08-08T17:52:53.095Z,96293.25
2022-08-08T17:56:05.260Z,96319.97
2022-08-08T17:58:13.191Z,96300.38
2022-08-08T18:00:42.068Z,96263.59
2022-08-08T18:03:18.695Z,96328.84
2022-08-08T18:05:51.674Z,96316.41
2022-08-08T18:08:37.782Z,96325.63
2022-08-08T18:11:15.365Z,96332.16
2022-08-08T18:13:46.968Z,96336.69
2022-08-08T18:16:22.906Z,96335.78
2022-08-08T18:18:55.973Z,96342.59
2022-08-08T18:22:00.198Z,96338.66
2022-08-08T18:24:18.732Z,96349.16
2022-08-08T18:26:54.248Z,96319.03
2022-08-08T18:29:30.195Z,96330.03
2022-08-08T18:32:03.946Z,96288.34
2022-08-08T18:37:48.119Z,96140.88
2022-08-08T18:40:17.487Z,96209.72
2022-08-08T18:42:50.378Z,96356.00
2022-08-08T18:46:08.520Z,96356.31
2022-08-08T18:48:18.116Z,96368.44
2022-08-08T18:50:50.071Z,96370.19
2022-08-08T18:53:46.343Z,96370.63
2022-08-08T18:56:22.441Z,96378.66
2022-08-08T18:58:51.267Z,96386.56
2022-08-08T19:02:14.282Z,96336.00
2022-08-08T19:04:13.073Z,96383.41
2022-08-08T19:06:47.126Z,96396.81
2022-08-08T19:09:23.191Z,96392.63
2022-08-08T19:12:13.357Z,96400.03
2022-08-08T19:14:43.520Z,96418.25
2022-08-08T19:17:29.415Z,96396.66
2022-08-08T19:20:07.191Z,96420.53
2022-08-08T19:22:38.856Z,96424.72
2022-08-08T19:26:01.755Z,96418.28
2022-08-08T19:28:19.483Z,96436.47
2022-08-08T19:31:03.991Z,96427.63
2022-08-08T19:34:04.264Z,96418.75
2022-08-08T19:36:31.232Z,96416.47
2022-08-08T19:39:02.533Z,96423.25
2022-08-08T19:41:35.027Z,96428.88
2022-08-08T19:44:12.617Z,96429.66
2022-08-08T19:46:43.557Z,96432.22
2022-08-08T19:49:16.853Z,96428.38
2022-08-08T19:51:45.688Z,96411.22
2022-08-08T19:54:18.262Z,96426.41
2022-08-08T19:56:48.898Z,96431.56
2022-08-08T19:59:22.643Z,96418.31
2022-08-08T20:02:03.061Z,96410.88
2022-08-08T20:04:34.933Z,96424.41
2022-08-08T20:08:26.858Z,96411.78
2022-08-08T20:09:56.146Z,96361.50
2022-08-08T20:12:32.464Z,96435.78
2022-08-08T20:15:15.163Z,96432.88
2022-08-08T20:17:46.723Z,96414.16
2022-08-08T20:20:20.605Z,96437.22
2022-08-08T20:22:54.082Z,96438.94
2022-08-08T20:25:29.638Z,96436.97
2022-08-08T20:28:02.168Z,96447.28
2022-08-08T20:30:55.927Z,96445.50
2022-08-08T20:35:58.149Z,96446.88
2022-08-08T20:38:33.407Z,96453.59
2022-08-08T20:41:17.752Z,96460.31
2022-08-08T20:43:49.781Z,96448.53
2022-08-08T20:46:21.231Z,96448.63
2022-08-08T20:48:58.314Z,96447.34
2022-08-08T20:51:32.527Z,96446.84
2022-08-08T20:54:04.898Z,96454.38
2022-08-08T20:57:04.316Z,96446.13
2022-08-08T20:59:32.070Z,96444.63
2022-08-08T21:02:12.423Z,96392.03
2022-08-08T21:04:43.666Z,96442.59
2022-08-08T21:07:47.901Z,96407.19
2022-08-08T21:10:13.012Z,96374.63
2022-08-08T21:12:44.342Z,96445.19
2022-08-08T21:15:16.690Z,96442.59
2022-08-08T21:18:04.606Z,96441.56
2022-08-08T21:20:34.353Z,96442.72
2022-08-08T21:23:08.944Z,96260.25
2022-08-08T21:25:38.401Z,96447.16
2022-08-08T21:28:15.773Z,96445.66
2022-08-08T21:30:49.767Z,96443.06
2022-08-08T21:33:21.214Z,96448.63
2022-08-08T21:36:13.797Z,96447.13
2022-08-08T21:38:39.733Z,96444.00
2022-08-08T21:41:08.386Z,96452.78
2022-08-08T21:43:47.362Z,96450.19
2022-08-08T21:48:12.862Z,96454.13
2022-08-08T21:49:07.980Z,96455.31
2022-08-08T21:54:18.418Z,96445.34
2022-08-08T21:54:54.851Z,96454.41
2022-08-08T21:57:16.433Z,96454.00
2022-08-08T22:00:03.110Z,96452.69
2022-08-08T22:02:33.353Z,96453.13
2022-08-08T22:05:03.089Z,96437.44
2022-08-08T22:07:39.939Z,96450.47
2022-08-08T22:10:18.551Z,96454.94
2022-08-08T22:13:18.066Z,96388.06
2022-08-08T22:15:58.931Z,96454.81
2022-08-08T22:18:31.192Z,96444.91
2022-08-08T22:21:10.615Z,96413.38
2022-08-08T22:23:50.586Z,96454.19
2022-08-08T22:26:28.826Z,96413.69
2022-08-08T22:29:14.317Z,96422.09
2022-08-08T22:31:58.407Z,96462.66
2022-08-08T22:34:32.479Z,96467.09
2022-08-08T22:37:01.181Z,96464.66
2022-08-08T22:39:46.005Z,96465.53
2022-08-08T22:42:27.019Z,96462.59
2022-08-08T22:45:00.139Z,96400.91
2022-08-08T22:47:34.542Z,96466.22
2022-08-08T22:50:25.006Z,96439.00
2022-08-08T22:54:15.700Z,96459.03
2022-08-08T22:55:57.824Z,96466.97
2022-08-08T22:58:33.059Z,96454.53
2022-08-08T23:02:00.386Z,96439.56
2022-08-08T23:03:54.663Z,96400.72
2022-08-08T23:06:24.290Z,96393.22
2022-08-08T23:08:55.272Z,96460.47
2022-08-08T23:11:31.464Z,96454.28
2022-08-08T23:14:15.802Z,96431.19
2022-08-08T23:16:47.201Z,96448.78
2022-08-08T23:19:23.269Z,96455.25
2022-08-08T23:21:52.490Z,96446.66
2022-08-08T23:24:23.741Z,96454.44
2022-08-08T23:26:55.457Z,96457.75
2022-08-08T23:29:29.814Z,96424.09
2022-08-08T23:32:00.265Z,96415.81
2022-08-08T23:34:31.071Z,96425.50
2022-08-08T23:37:00.766Z,96434.19
2022-08-08T23:39:49.267Z,96449.34
2022-08-08T23:42:21.994Z,96433.22
2022-08-08T23:44:52.160Z,96453.25
2022-08-08T23:49:07.762Z,96423.88
2022-08-08T23:50:14.969Z,96342.19
2022-08-08T23:52:59.042Z,96455.00
2022-08-08T23:55:32.204Z,96455.00
2022-08-08T23:58:07.925Z,96451.25
